Time;durP1;ratioP1;P1;durP2;ratioP2;P2;SDS_P1;SDS_P2;PMS_P1;PMS_P2;Temp;Humidity;BMP_temperature;BMP_pressure;BME280_temperature;BME280_humidity;BME280_pressure;Samples;Min_cycle;Max_cycle;Signal;HPM_P1;HPM_P2
2023/04/17 00:01:39;;;;;;;6.30;2.50;;;10.60;99.90;;;;;;4993664;28;20439;-51
2023/04/17 00:04:09;;;;;;;7.82;3.20;;;10.60;99.90;;;;;;5011627;28;20030;-52
2023/04/17 00:06:38;;;;;;;8.23;3.13;;;10.60;99.90;;;;;;5011763;28;20034;-57
2023/04/17 00:09:04;;;;;;;6.15;3.03;;;10.60;99.90;;;;;;5011401;28;20773;-58
2023/04/17 00:11:30;;;;;;;8.40;3.22;;;10.60;99.90;;;;;;5011476;28;20049;-58
2023/04/17 00:13:56;;;;;;;9.90;3.83;;;10.60;99.90;;;;;;5011086;28;20109;-58
2023/04/17 00:16:22;;;;;;;8.38;3.17;;;10.60;99.90;;;;;;5011157;28;20030;-54
2023/04/17 00:18:47;;;;;;;9.85;3.83;;;10.60;99.90;;;;;;5011046;28;20048;-57
2023/04/17 00:21:13;;;;;;;25.10;9.82;;;10.60;99.90;;;;;;5011324;28;20392;-57
2023/04/17 00:23:39;;;;;;;9.43;4.70;;;10.60;99.90;;;;;;5011213;28;20381;-58
2023/04/17 00:26:05;;;;;;;12.85;4.93;;;10.60;99.90;;;;;;5011098;28;20021;-58
2023/04/17 00:28:31;;;;;;;12.50;5.38;;;10.60;99.90;;;;;;5010759;28;20432;-55
2023/04/17 00:30:57;;;;;;;21.60;7.97;;;10.60;99.90;;;;;;5010628;28;20034;-55
2023/04/17 00:33:23;;;;;;;14.88;7.65;;;10.60;99.90;;;;;;5010884;28;20433;-58
2023/04/17 00:35:49;;;;;;;20.13;8.50;;;10.60;99.90;;;;;;5010884;28;20473;-56
2023/04/17 00:38:14;;;;;;;16.33;7.95;;;10.60;99.90;;;;;;5010783;28;20030;-59
2023/04/17 00:40:41;;;;;;;12.95;7.35;;;10.60;99.90;;;;;;5011086;28;20358;-56
2023/04/17 00:43:06;;;;;;;12.82;7.25;;;10.60;99.90;;;;;;5010748;28;20046;-56
2023/04/17 00:45:33;;;;;;;11.80;7.03;;;10.60;99.90;;;;;;5009661;28;20058;-57
2023/04/17 00:48:00;;;;;;;11.93;6.60;;;10.60;99.90;;;;;;5010469;28;20045;-57
2023/04/17 00:50:27;;;;;;;9.50;6.53;;;10.60;99.90;;;;;;5010655;28;20030;-58
2023/04/17 00:52:54;;;;;;;11.63;7.10;;;10.60;99.90;;;;;;5010534;28;20405;-58
2023/04/17 00:55:19;;;;;;;11.98;6.70;;;10.60;99.90;;;;;;5010889;28;20122;-55
2023/04/17 00:57:48;;;;;;;12.90;7.13;;;10.60;99.90;;;;;;5010374;28;20054;-55
2023/04/17 01:00:14;;;;;;;12.98;7.43;;;10.60;99.90;;;;;;5010367;28;20036;-57
2023/04/17 01:02:40;;;;;;;11.85;7.45;;;10.60;99.90;;;;;;5010455;28;20034;-55
2023/04/17 01:05:06;;;;;;;11.63;6.97;;;10.60;99.90;;;;;;5010579;28;20084;-57
2023/04/17 01:07:31;;;;;;;14.82;7.50;;;10.60;99.90;;;;;;5010228;28;20018;-58
2023/04/17 01:09:58;;;;;;;12.65;6.88;;;10.60;99.90;;;;;;5010569;28;20508;-58
2023/04/17 01:12:24;;;;;;;13.82;7.82;;;10.60;99.90;;;;;;5010022;28;20060;-59
2023/04/17 01:14:51;;;;;;;13.35;7.32;;;10.60;99.90;;;;;;5010536;28;20040;-57
2023/04/17 01:17:20;;;;;;;13.27;7.20;;;10.60;99.90;;;;;;5010130;28;20034;-57
2023/04/17 01:19:46;;;;;;;12.15;6.90;;;10.60;99.90;;;;;;5010862;28;20049;-57
2023/04/17 01:22:15;;;;;;;10.02;6.07;;;10.70;99.90;;;;;;5012573;28;20041;-57
2023/04/17 01:24:41;;;;;;;9.48;5.05;;;10.70;99.90;;;;;;5014165;28;20068;-57
2023/04/17 01:27:07;;;;;;;12.02;5.60;;;10.60;99.90;;;;;;5013798;28;20017;-56
2023/04/17 01:29:33;;;;;;;9.90;4.45;;;10.60;99.90;;;;;;5013990;28;20029;-55
2023/04/17 01:31:59;;;;;;;7.90;4.20;;;10.70;99.90;;;;;;5013983;28;20116;-55
2023/04/17 01:34:25;;;;;;;10.15;4.50;;;10.70;99.90;;;;;;5013996;28;20061;-54
2023/04/17 01:36:50;;;;;;;9.60;4.30;;;10.60;99.90;;;;;;5014019;28;20061;-55
2023/04/17 01:39:16;;;;;;;11.70;4.43;;;10.60;99.90;;;;;;5013834;28;20385;-55
2023/04/17 01:41:42;;;;;;;12.38;4.95;;;10.60;99.90;;;;;;5013862;28;20599;-59
2023/04/17 01:44:07;;;;;;;9.23;4.55;;;10.60;99.90;;;;;;5013757;28;20026;-57
2023/04/17 01:46:33;;;;;;;10.00;4.47;;;10.60;99.90;;;;;;5013377;28;20096;-55
2023/04/17 01:49:02;;;;;;;10.85;4.30;;;10.60;99.90;;;;;;5013901;28;20030;-55
2023/04/17 01:51:27;;;;;;;10.80;4.63;;;10.60;99.90;;;;;;5013685;28;20025;-55
2023/04/17 01:53:53;;;;;;;10.13;4.25;;;10.60;99.90;;;;;;5013720;28;20033;-55
2023/04/17 01:56:19;;;;;;;10.40;4.05;;;10.60;99.90;;;;;;5011654;28;20076;-60
2023/04/17 01:58:45;;;;;;;7.28;4.40;;;10.60;99.90;;;;;;5013006;28;20092;-57
2023/04/17 02:01:10;;;;;;;10.43;4.30;;;10.60;99.90;;;;;;5002020;28;20089;-55
2023/04/17 02:03:36;;;;;;;10.80;4.10;;;10.60;99.90;;;;;;4995812;28;20028;-62
2023/04/17 02:06:05;;;;;;;9.52;4.75;;;10.60;99.90;;;;;;5013535;28;20072;-57
2023/04/17 02:08:30;;;;;;;9.98;4.65;;;10.60;99.90;;;;;;5012098;28;20034;-56
2023/04/17 02:10:56;;;;;;;9.23;4.18;;;10.60;99.90;;;;;;4999145;28;20114;-55
2023/04/17 02:13:22;;;;;;;11.00;4.55;;;10.60;99.90;;;;;;5003579;28;20100;-54
2023/04/17 02:15:47;;;;;;;10.73;4.82;;;10.60;99.90;;;;;;5008032;28;20452;-57
2023/04/17 02:18:13;;;;;;;10.30;4.45;;;10.60;99.90;;;;;;5013140;28;20096;-55
2023/04/17 02:20:38;;;;;;;10.50;4.00;;;10.60;99.90;;;;;;5013278;28;20049;-55
2023/04/17 02:23:05;;;;;;;9.13;4.03;;;10.60;99.90;;;;;;5013632;28;20109;-55
2023/04/17 02:25:31;;;;;;;8.00;3.75;;;10.60;99.90;;;;;;5013578;28;20549;-56
2023/04/17 02:27:57;;;;;;;8.63;4.00;;;10.60;99.90;;;;;;5013383;28;20053;-54
2023/04/17 02:30:24;;;;;;;10.43;4.32;;;10.60;99.90;;;;;;5013875;28;20377;-56
2023/04/17 02:32:52;;;;;;;9.75;4.82;;;10.60;99.90;;;;;;5010633;28;20033;-56
2023/04/17 02:35:23;;;;;;;11.00;5.35;;;10.60;99.90;;;;;;5009875;28;20037;-54
2023/04/17 02:37:49;;;;;;;9.95;5.13;;;10.60;99.90;;;;;;5004473;28;20030;-56
2023/04/17 02:40:15;;;;;;;9.70;5.28;;;10.50;99.90;;;;;;5006974;28;20048;-57
2023/04/17 02:42:41;;;;;;;14.32;5.43;;;10.50;99.90;;;;;;5006793;28;20057;-55
2023/04/17 02:45:07;;;;;;;10.23;5.53;;;10.50;99.90;;;;;;5012976;28;20096;-52
2023/04/17 02:47:33;;;;;;;11.10;5.38;;;10.40;99.90;;;;;;5012454;28;20026;-56
2023/04/17 02:50:01;;;;;;;11.90;6.30;;;10.40;99.90;;;;;;4999357;28;20026;-55
2023/04/17 02:52:31;;;;;;;11.20;6.15;;;10.40;99.90;;;;;;5012127;28;20043;-57
2023/04/17 02:55:00;;;;;;;;;;;10.40;99.90;;;;;;5012657;28;20023;-56
2023/04/17 02:57:26;;;;;;;11.30;6.87;;;10.40;99.90;;;;;;5012180;28;19905;-55
2023/04/17 02:59:52;;;;;;;13.77;7.65;;;10.40;99.90;;;;;;5012592;28;20265;-57
2023/04/17 03:02:20;;;;;;;14.70;7.43;;;10.40;99.90;;;;;;5012196;28;20030;-59
2023/04/17 03:04:49;;;;;;;12.93;7.57;;;10.40;99.90;;;;;;5012380;28;20029;-58
2023/04/17 03:07:19;;;;;;;14.00;6.82;;;10.40;99.90;;;;;;5012116;28;20486;-55
2023/04/17 03:09:45;;;;;;;13.77;6.78;;;10.40;99.90;;;;;;5012195;28;20030;-57
2023/04/17 03:12:15;;;;;;;10.48;6.60;;;10.40;99.90;;;;;;5011919;28;20034;-57
2023/04/17 03:14:41;;;;;;;11.80;7.15;;;10.40;99.90;;;;;;5010741;28;20413;-55
2023/04/17 03:17:07;;;;;;;13.13;7.90;;;10.40;99.90;;;;;;5011831;28;20422;-57
2023/04/17 03:19:33;;;;;;;13.32;7.45;;;10.40;99.90;;;;;;5010081;28;20088;-56
2023/04/17 03:22:00;;;;;;;11.57;8.50;;;10.40;99.90;;;;;;5011688;28;20018;-55
2023/04/17 03:24:26;;;;;;;15.77;9.07;;;10.40;99.90;;;;;;5011305;28;20505;-56
2023/04/17 03:26:51;;;;;;;20.10;11.50;;;10.40;99.90;;;;;;5011524;28;20029;-56
2023/04/17 03:29:17;;;;;;;18.20;12.82;;;10.40;99.90;;;;;;5011630;28;20036;-57
2023/04/17 03:31:43;;;;;;;20.75;14.50;;;10.40;99.90;;;;;;5011301;28;20026;-55
2023/04/17 03:34:08;;;;;;;21.85;16.60;;;10.40;99.90;;;;;;5011830;28;20433;-58
2023/04/17 03:36:35;;;;;;;22.67;16.48;;;10.30;99.90;;;;;;5011486;28;20428;-59
2023/04/17 03:39:01;;;;;;;24.85;16.50;;;10.30;99.90;;;;;;5011585;28;20473;-58
2023/04/17 03:41:26;;;;;;;21.45;16.45;;;10.30;99.90;;;;;;5011656;28;20041;-54
2023/04/17 03:43:52;;;;;;;23.40;17.20;;;10.30;99.90;;;;;;5011386;28;20101;-55
2023/04/17 03:46:18;;;;;;;23.60;17.02;;;10.30;99.90;;;;;;5011325;28;20746;-54
2023/04/17 03:48:43;;;;;;;27.45;17.83;;;10.20;99.90;;;;;;5011454;28;20050;-56
2023/04/17 03:51:09;;;;;;;28.23;19.02;;;10.20;99.90;;;;;;5011518;28;20025;-54
2023/04/17 03:53:35;;;;;;;24.63;20.63;;;10.20;99.90;;;;;;5011192;28;20116;-53
2023/04/17 03:56:00;;;;;;;26.08;19.55;;;10.20;99.90;;;;;;5011127;28;20069;-54
2023/04/17 03:58:26;;;;;;;26.13;19.20;;;10.20;99.90;;;;;;5011212;28;20163;-55
2023/04/17 04:00:57;;;;;;;24.38;19.33;;;10.20;99.90;;;;;;5011365;28;20046;-57
2023/04/17 04:03:23;;;;;;;24.17;18.55;;;10.20;99.90;;;;;;5011184;28;20480;-58
2023/04/17 04:05:49;;;;;;;25.63;19.58;;;10.10;99.90;;;;;;5010955;28;20057;-58
2023/04/17 04:08:15;;;;;;;30.30;20.88;;;10.20;99.90;;;;;;5011355;28;20178;-56
2023/04/17 04:10:43;;;;;;;30.05;23.52;;;10.20;99.90;;;;;;5011261;28;20022;-58
2023/04/17 04:13:09;;;;;;;32.45;24.80;;;10.10;99.90;;;;;;5010993;28;20087;-55
2023/04/17 04:15:35;;;;;;;32.80;27.85;;;10.10;99.90;;;;;;5011001;28;20034;-56
2023/04/17 04:18:01;;;;;;;37.88;29.70;;;10.10;99.90;;;;;;5010721;28;20022;-55
2023/04/17 04:20:27;;;;;;;39.13;28.23;;;10.20;99.90;;;;;;5026040;28;20033;-55
2023/04/17 04:22:56;;;;;;;42.25;30.98;;;10.10;99.90;;;;;;5010737;28;20377;-54
2023/04/17 04:25:22;;;;;;;36.30;30.27;;;10.10;99.90;;;;;;5011065;28;20513;-54
2023/04/17 04:27:48;;;;;;;38.83;29.23;;;10.10;99.90;;;;;;5010830;28;20033;-55
2023/04/17 04:30:15;;;;;;;38.45;30.13;;;10.10;99.90;;;;;;5010809;28;20119;-57
2023/04/17 04:32:42;;;;;;;40.13;30.77;;;10.10;99.90;;;;;;5010850;28;20038;-54
2023/04/17 04:35:08;;;;;;;39.25;29.38;;;10.10;99.90;;;;;;5010679;28;20033;-56
2023/04/17 04:37:34;;;;;;;34.13;27.85;;;10.10;99.90;;;;;;5010838;28;20048;-59
2023/04/17 04:40:09;;;;;;;33.47;24.38;;;10.10;99.90;;;;;;5010424;28;20104;-53
2023/04/17 04:42:41;;;;;;;28.90;23.10;;;10.10;99.90;;;;;;5010958;28;20069;-57
2023/04/17 04:45:08;;;;;;;27.38;22.35;;;10.10;99.90;;;;;;5010694;28;20069;-55
2023/04/17 04:47:34;;;;;;;29.88;21.98;;;10.10;99.90;;;;;;5009101;28;20069;-53
2023/04/17 04:49:59;;;;;;;26.40;17.55;;;10.10;99.90;;;;;;5011053;28;20111;-55
2023/04/17 04:52:25;;;;;;;26.75;17.55;;;10.10;99.90;;;;;;5010595;28;20501;-53
2023/04/17 04:54:51;;;;;;;27.02;18.60;;;10.10;99.90;;;;;;5010943;28;20025;-53
2023/04/17 04:57:17;;;;;;;28.80;19.50;;;10.10;99.90;;;;;;5012863;28;20127;-54
2023/04/17 04:59:43;;;;;;;26.17;19.35;;;10.10;99.90;;;;;;5014664;28;20442;-53
2023/04/17 05:02:08;;;;;;;26.48;20.30;;;10.10;99.90;;;;;;5014384;28;20544;-52
2023/04/17 05:04:34;;;;;;;24.17;16.98;;;10.10;99.90;;;;;;5013217;28;20022;-54
2023/04/17 05:07:00;;;;;;;23.50;14.95;;;10.10;99.90;;;;;;5014550;28;20036;-54
2023/04/17 05:09:26;;;;;;;21.08;13.35;;;10.10;99.90;;;;;;5014576;28;20030;-53
2023/04/17 05:11:52;;;;;;;17.02;11.30;;;10.10;99.90;;;;;;5013019;28;20037;-53
2023/04/17 05:14:18;;;;;;;16.85;10.73;;;10.10;99.90;;;;;;5014224;28;20030;-52
2023/04/17 05:16:44;;;;;;;18.35;10.95;;;10.10;99.90;;;;;;5013894;28;20030;-52
2023/04/17 05:19:10;;;;;;;16.88;11.23;;;10.10;99.90;;;;;;5014217;28;20538;-53
2023/04/17 05:21:36;;;;;;;15.68;10.50;;;10.10;99.90;;;;;;5014208;28;20038;-51
2023/04/17 05:24:02;;;;;;;18.05;12.00;;;10.10;99.90;;;;;;5014140;28;20033;-50
2023/04/17 05:26:27;;;;;;;22.85;12.73;;;10.20;99.90;;;;;;5014178;28;20026;-54
2023/04/17 05:28:53;;;;;;;21.02;13.00;;;10.10;99.90;;;;;;5014225;28;20384;-51
2023/04/17 05:31:20;;;;;;;26.27;14.98;;;10.10;99.90;;;;;;5013996;28;20076;-53
2023/04/17 05:33:46;;;;;;;21.25;14.45;;;10.20;99.90;;;;;;5014342;28;20069;-54
2023/04/17 05:36:12;;;;;;;25.67;15.38;;;10.20;99.90;;;;;;5014181;28;20057;-53
2023/04/17 05:38:37;;;;;;;23.83;14.55;;;10.20;99.90;;;;;;5013760;28;20045;-54
2023/04/17 05:41:06;;;;;;;20.73;14.00;;;10.20;99.90;;;;;;5013899;28;20026;-54
2023/04/17 05:43:32;;;;;;;23.42;16.40;;;10.20;99.90;;;;;;5013515;28;20026;-54
2023/04/17 05:45:57;;;;;;;27.25;17.98;;;10.30;99.90;;;;;;5013718;28;20022;-53
2023/04/17 05:48:23;;;;;;;27.20;17.05;;;10.30;99.90;;;;;;5013627;28;20022;-54
2023/04/17 05:50:49;;;;;;;24.50;17.08;;;10.40;99.90;;;;;;5013562;28;20508;-54
2023/04/17 05:53:15;;;;;;;23.20;16.10;;;10.40;99.90;;;;;;5013714;28;20468;-57
2023/04/17 05:55:41;;;;;;;24.83;17.02;;;10.50;99.90;;;;;;5013505;28;20018;-54
2023/04/17 05:58:06;;;;;;;26.15;17.45;;;10.60;99.90;;;;;;5013351;28;20053;-51
2023/04/17 06:00:32;;;;;;;23.05;16.88;;;10.60;99.90;;;;;;5013201;28;20108;-53
2023/04/17 06:03:00;;;;;;;25.90;17.98;;;10.70;99.90;;;;;;5013407;28;20057;-54
2023/04/17 06:05:26;;;;;;;27.90;18.48;;;10.80;99.90;;;;;;5013420;28;20369;-53
2023/04/17 06:07:51;;;;;;;24.95;17.83;;;10.80;99.90;;;;;;5011757;28;20018;-53
2023/04/17 06:10:17;;;;;;;26.13;17.90;;;10.90;99.90;;;;;;5013234;28;20025;-53
2023/04/17 06:12:43;;;;;;;27.20;18.33;;;10.90;99.90;;;;;;5012892;28;20030;-54
2023/04/17 06:15:09;;;;;;;26.75;19.10;;;11.00;99.90;;;;;;5011821;28;20022;-53
2023/04/17 06:17:38;;;;;;;30.67;19.27;;;11.10;99.90;;;;;;5012993;28;20084;-57
2023/04/17 06:20:08;;;;;;;;;;;11.20;99.90;;;;;;5013516;28;20026;-54
2023/04/17 06:22:34;;;;;;;26.67;17.65;;;11.40;99.90;;;;;;5013033;28;19915;-58
2023/04/17 06:24:59;;;;;;;26.77;17.10;;;11.60;99.90;;;;;;5012998;28;20429;-56
2023/04/17 06:27:25;;;;;;;22.45;16.77;;;11.80;99.90;;;;;;5012746;28;20033;-56
2023/04/17 06:29:51;;;;;;;23.35;16.75;;;12.10;99.90;;;;;;5012770;28;20030;-55
2023/04/17 06:32:16;;;;;;;26.35;17.27;;;12.50;99.90;;;;;;5012913;28;20128;-56
2023/04/17 06:34:42;;;;;;;24.10;17.75;;;12.60;99.90;;;;;;5012885;28;20026;-54
2023/04/17 06:37:07;;;;;;;22.08;14.40;;;13.40;99.90;;;;;;5012761;28;20030;-54
2023/04/17 06:39:33;;;;;;;17.65;10.88;;;14.60;99.90;;;;;;5012817;28;20030;-58
2023/04/17 06:41:59;;;;;;;11.40;6.40;;;16.30;99.90;;;;;;5012428;28;20110;-55
2023/04/17 06:44:24;;;;;;;14.55;8.75;;;17.40;99.90;;;;;;5012614;28;20025;-54
2023/04/17 06:46:52;;;;;;;12.38;7.07;;;18.30;97.50;;;;;;5012087;28;20021;-53
2023/04/17 06:49:17;;;;;;;9.75;6.15;;;18.00;89.10;;;;;;5012586;28;20504;-54
2023/04/17 06:51:44;;;;;;;10.60;7.38;;;17.80;89.20;;;;;;5012269;28;20033;-56
2023/04/17 06:54:10;;;;;;;11.77;6.63;;;17.50;90.90;;;;;;5012391;28;20600;-55
2023/04/17 06:56:36;;;;;;;12.45;6.53;;;17.40;92.20;;;;;;5011041;28;20040;-56
2023/04/17 06:59:02;;;;;;;8.88;5.93;;;17.40;90.10;;;;;;5011873;28;20046;-54
2023/04/17 07:01:30;;;;;;;13.02;6.40;;;18.00;88.60;;;;;;5012219;28;20378;-60
2023/04/17 07:03:56;;;;;;;11.07;6.65;;;18.30;88.80;;;;;;5012196;28;20037;-58
2023/04/17 07:06:23;;;;;;;12.73;6.40;;;17.80;86.40;;;;;;5012359;28;20034;-54
2023/04/17 07:08:48;;;;;;;11.50;6.40;;;16.90;88.30;;;;;;5011998;28;20450;-58
2023/04/17 07:11:14;;;;;;;11.85;6.22;;;16.60;90.20;;;;;;5011946;28;20046;-57
2023/04/17 07:13:40;;;;;;;11.82;6.13;;;15.90;90.30;;;;;;5011889;28;20505;-56
2023/04/17 07:16:06;;;;;;;13.15;6.72;;;15.70;92.10;;;;;;5011740;28;20021;-53
2023/04/17 07:18:32;;;;;;;12.13;7.03;;;15.30;91.70;;;;;;5007816;28;20026;-54
2023/04/17 07:20:57;;;;;;;13.95;7.72;;;14.90;92.70;;;;;;4996606;28;20026;-54
2023/04/17 07:23:23;;;;;;;12.68;7.85;;;14.70;94.30;;;;;;5008517;28;20029;-54
2023/04/17 07:25:49;;;;;;;14.32;8.43;;;14.60;95.50;;;;;;5004185;28;20026;-57
2023/04/17 07:28:15;;;;;;;13.70;6.70;;;14.40;94.70;;;;;;5007220;28;20080;-53
2023/04/17 07:30:41;;;;;;;14.48;6.88;;;14.20;93.90;;;;;;5006832;28;20030;-53
2023/04/17 07:33:07;;;;;;;11.32;6.50;;;14.10;94.50;;;;;;5007407;28;20042;-52
2023/04/17 07:35:33;;;;;;;12.85;7.28;;;14.10;95.80;;;;;;5012007;28;20072;-52
2023/04/17 07:38:00;;;;;;;15.48;7.28;;;14.40;96.30;;;;;;5011429;28;20509;-55
2023/04/17 07:40:26;;;;;;;10.43;6.43;;;14.60;95.60;;;;;;5011519;28;20036;-52
2023/04/17 07:42:53;;;;;;;13.88;6.97;;;15.50;96.40;;;;;;5011941;28;20037;-47
2023/04/17 07:45:18;;;;;;;11.80;6.13;;;17.00;95.20;;;;;;5011479;28;20444;-55
2023/04/17 07:47:45;;;;;;;11.48;5.40;;;19.00;90.70;;;;;;5011378;28;20393;-55
2023/04/17 07:50:11;;;;;;;9.48;3.70;;;21.20;82.80;;;;;;5011201;28;20435;-56
2023/04/17 07:52:36;;;;;;;11.00;3.72;;;22.70;66.10;;;;;;5011514;28;20026;-58
2023/04/17 07:55:02;;;;;;;7.47;3.90;;;23.30;61.50;;;;;;5011353;28;20026;-56
2023/04/17 07:57:28;;;;;;;10.35;4.43;;;23.90;64.00;;;;;;5011321;28;20084;-55
2023/04/17 07:59:54;;;;;;;9.00;4.88;;;24.60;57.50;;;;;;5011568;28;20108;-56
2023/04/17 08:02:20;;;;;;;8.43;4.53;;;24.70;57.50;;;;;;5010838;28;20185;-55
2023/04/17 08:04:46;;;;;;;11.35;6.45;;;24.80;57.20;;;;;;5010783;28;20037;-54
2023/04/17 08:07:11;;;;;;;8.90;5.60;;;24.80;57.90;;;;;;5010896;28;20481;-53
2023/04/17 08:09:38;;;;;;;9.73;5.68;;;24.80;58.60;;;;;;5010853;28;20034;-53
2023/04/17 08:12:05;;;;;;;8.05;4.78;;;25.30;56.00;;;;;;5010959;28;20088;-53
2023/04/17 08:14:30;;;;;;;7.35;5.15;;;25.40;58.00;;;;;;5011092;28;20030;-56
2023/04/17 08:16:56;;;;;;;12.32;6.22;;;25.90;55.50;;;;;;5011146;28;20026;-54
2023/04/17 08:19:22;;;;;;;9.85;6.35;;;25.40;52.50;;;;;;5009735;28;20031;-54
2023/04/17 08:21:48;;;;;;;11.48;6.03;;;25.50;55.60;;;;;;5011047;28;20147;-55
2023/04/17 08:24:14;;;;;;;10.07;6.18;;;26.30;51.40;;;;;;5010955;28;20040;-55
2023/04/17 08:26:40;;;;;;;9.20;5.75;;;26.40;51.00;;;;;;5010863;28;20014;-53
2023/04/17 08:29:06;;;;;;;9.70;6.18;;;25.80;53.50;;;;;;5011278;28;20052;-55
2023/04/17 08:31:35;;;;;;;9.10;5.20;;;26.30;51.70;;;;;;5010913;28;20026;-56
2023/04/17 08:34:01;;;;;;;9.02;4.32;;;26.40;50.10;;;;;;5010923;28;20041;-54
2023/04/17 08:36:27;;;;;;;7.45;3.50;;;26.00;47.20;;;;;;5010819;28;20029;-55
2023/04/17 08:38:53;;;;;;;6.30;3.47;;;24.80;48.00;;;;;;5010828;28;20017;-55
2023/04/17 08:41:24;;;;;;;5.95;3.42;;;25.70;52.80;;;;;;5010721;28;20022;-50
2023/04/17 08:43:50;;;;;;;7.88;3.67;;;26.60;48.90;;;;;;5010660;28;20040;-52
2023/04/17 08:46:19;;;;;;;7.90;3.92;;;26.80;46.80;;;;;;5010816;28;20378;-52
2023/04/17 08:48:45;;;;;;;9.25;4.00;;;26.70;46.90;;;;;;5008907;28;20029;-54
2023/04/17 08:51:11;;;;;;;6.35;3.30;;;26.90;47.00;;;;;;5010147;28;20033;-52
2023/04/17 08:53:37;;;;;;;8.02;3.42;;;27.50;49.40;;;;;;5010594;28;20501;-50
2023/04/17 08:56:04;;;;;;;6.38;2.90;;;27.90;45.70;;;;;;5010769;28;20112;-50
2023/04/17 08:58:34;;;;;;;5.20;3.03;;;28.70;48.00;;;;;;5010574;28;20043;-52
2023/04/17 09:01:08;;;;;;;6.53;3.70;;;28.40;46.30;;;;;;5010627;28;20022;-48
2023/04/17 09:03:46;;;;;;;6.28;3.90;;;28.80;44.10;;;;;;5010285;28;20127;-51
2023/04/17 09:06:13;;;;;;;6.75;3.80;;;27.80;44.90;;;;;;5010564;28;20469;-48
2023/04/17 09:08:58;;;;;;;9.00;3.78;;;27.90;45.20;;;;;;5010788;28;20034;-47
2023/04/17 09:11:24;;;;;;;6.78;3.83;;;29.00;46.10;;;;;;5009532;28;20026;-53
2023/04/17 09:13:50;;;;;;;6.20;3.00;;;29.70;45.70;;;;;;5008796;28;20042;-47
2023/04/17 09:16:18;;;;;;;5.35;3.15;;;30.00;44.50;;;;;;5009397;28;20029;-53
2023/04/17 09:18:48;;;;;;;5.55;3.45;;;30.10;42.80;;;;;;5009979;28;20034;-51
2023/04/17 09:21:17;;;;;;;5.22;2.53;;;30.30;44.90;;;;;;5009984;28;20034;-49
2023/04/17 09:23:54;;;;;;;6.95;3.35;;;30.20;45.00;;;;;;5005443;28;20504;-49
2023/04/17 09:26:25;;;;;;;4.60;2.65;;;30.60;46.00;;;;;;5009758;28;20034;-55
2023/04/17 09:29:06;;;;;;;7.00;3.03;;;31.30;44.80;;;;;;5010201;28;20033;-52
2023/04/17 09:31:36;;;;;;;5.97;3.22;;;29.80;44.30;;;;;;5010162;28;20025;-50
2023/04/17 09:34:04;;;;;;;8.82;2.95;;;29.80;45.20;;;;;;5010289;28;20149;-48
2023/04/17 09:36:32;;;;;;;9.15;3.05;;;29.60;43.60;;;;;;5010287;28;20112;-50
2023/04/17 09:39:00;;;;;;;6.07;2.70;;;30.10;45.10;;;;;;5007636;28;20026;-48
2023/04/17 09:41:28;;;;;;;7.57;2.97;;;30.00;44.30;;;;;;5000181;28;20034;-48
2023/04/17 09:43:55;;;;;;;5.73;3.10;;;28.70;45.10;;;;;;4997441;28;20061;-51
2023/04/17 09:46:37;;;;;;;7.00;3.33;;;29.20;45.70;;;;;;5004731;28;20317;-47
2023/04/17 09:49:32;;;;;;;6.38;2.63;;;28.60;43.50;;;;;;5007605;28;20072;-47
2023/04/17 09:51:58;;;;;;;6.28;3.35;;;28.90;43.00;;;;;;5025832;28;20408;-53
2023/04/17 09:54:24;;;;;;;6.30;2.72;;;29.60;45.20;;;;;;5004379;28;20061;-49
2023/04/17 09:56:54;;;;;;;5.88;3.10;;;30.30;42.80;;;;;;5012553;28;20076;-46
2023/04/17 09:59:22;;;;;;;5.80;2.72;;;29.00;45.40;;;;;;5011653;28;20069;-45
2023/04/17 10:01:49;;;;;;;8.50;3.38;;;28.50;43.80;;;;;;5011541;28;20160;-44
2023/04/17 10:04:14;;;;;;;6.13;3.10;;;28.90;45.30;;;;;;5011626;28;20030;-45
2023/04/17 10:06:40;;;;;;;5.70;2.90;;;28.50;43.30;;;;;;5013073;28;20350;-54
2023/04/17 10:09:07;;;;;;;7.35;2.78;;;29.70;45.50;;;;;;5013255;28;20026;-49
2023/04/17 10:11:37;;;;;;;5.07;2.55;;;30.80;45.40;;;;;;5013264;28;20524;-46
2023/04/17 10:14:22;;;;;;;7.00;2.78;;;30.40;40.40;;;;;;5013212;28;20393;-51
2023/04/17 10:16:49;;;;;;;6.82;2.70;;;30.30;40.00;;;;;;5012182;28;20100;-51
2023/04/17 10:19:25;;;;;;;6.88;2.97;;;30.30;41.40;;;;;;5013052;28;20032;-50
2023/04/17 10:22:18;;;;;;;6.68;2.80;;;28.90;42.60;;;;;;5012533;28;20117;-45
2023/04/17 10:24:51;;;;;;;7.85;3.20;;;29.30;41.90;;;;;;5009790;28;20022;-44
2023/04/17 10:27:26;;;;;;;4.40;2.30;;;29.40;41.80;;;;;;5012962;28;20060;-53
2023/04/17 10:29:57;;;;;;;7.03;2.90;;;30.10;42.50;;;;;;5010252;28;20117;-52
2023/04/17 10:32:29;;;;;;;6.10;2.50;;;30.80;42.80;;;;;;5002217;28;20029;-46
2023/04/17 10:34:57;;;;;;;6.65;2.20;;;31.30;39.20;;;;;;5012242;28;20054;-45
2023/04/17 10:38:01;;;;;;;5.77;2.50;;;31.00;41.00;;;;;;5011922;28;20092;-51
2023/04/17 10:40:31;;;;;;;4.72;2.60;;;30.60;43.00;;;;;;4986653;28;20763;-50
2023/04/17 10:43:03;;;;;;;7.32;3.00;;;31.00;39.80;;;;;;5009045;28;20045;-48
2023/04/17 10:46:03;;;;;;;6.05;3.10;;;30.00;37.80;;;;;;5012244;28;20072;-57
2023/04/17 10:48:37;;;;;;;5.95;2.50;;;30.40;40.80;;;;;;5008675;28;20026;-43
2023/04/17 10:51:25;;;;;;;6.88;2.40;;;30.60;40.50;;;;;;5012466;28;20041;-47
2023/04/17 10:53:59;;;;;;;4.75;2.53;;;31.60;40.80;;;;;;5011137;28;20540;-47
2023/04/17 10:56:52;;;;;;;4.72;2.10;;;30.90;38.70;;;;;;5011955;28;20029;-47
2023/04/17 10:59:19;;;;;;;8.10;2.40;;;30.90;38.10;;;;;;5006989;28;20137;-49
2023/04/17 11:01:48;;;;;;;7.25;2.53;;;30.90;38.70;;;;;;5011859;28;20030;-44
2023/04/17 11:04:22;;;;;;;3.28;2.00;;;30.50;40.60;;;;;;5012220;28;20044;-44
2023/04/17 11:06:48;;;;;;;4.78;2.00;;;30.40;42.40;;;;;;5005054;28;20029;-43
2023/04/17 11:09:14;;;;;;;5.72;2.78;;;30.90;39.60;;;;;;5012056;28;20470;-43
2023/04/17 11:11:42;;;;;;;6.55;2.80;;;30.70;42.00;;;;;;5012172;28;20105;-44
2023/04/17 11:14:09;;;;;;;8.27;2.50;;;30.40;38.80;;;;;;5012095;28;20026;-44
2023/04/17 11:16:42;;;;;;;5.47;2.80;;;30.40;41.40;;;;;;5012396;28;20046;-44
2023/04/17 11:19:15;;;;;;;7.13;2.58;;;30.60;38.30;;;;;;5012106;28;20022;-44
2023/04/17 11:21:42;;;;;;;4.75;2.13;;;31.10;39.60;;;;;;5011929;28;20041;-44
2023/04/17 11:24:08;;;;;;;7.00;2.50;;;31.40;42.20;;;;;;5012062;28;20044;-44
2023/04/17 11:26:47;;;;;;;6.50;2.90;;;31.10;39.00;;;;;;5011500;28;20101;-45
2023/04/17 11:29:17;;;;;;;5.78;2.50;;;31.20;37.90;;;;;;5011798;28;20041;-45
2023/04/17 11:31:44;;;;;;;5.55;2.83;;;31.30;39.00;;;;;;5011330;28;20052;-44
2023/04/17 11:34:10;;;;;;;5.00;2.95;;;31.00;37.50;;;;;;5011627;28;20049;-45
2023/04/17 11:36:36;;;;;;;4.63;2.95;;;30.40;38.70;;;;;;5007785;28;20500;-44
2023/04/17 11:39:01;;;;;;;6.20;2.88;;;30.40;43.70;;;;;;5009063;28;20101;-45
2023/04/17 11:41:41;;;;;;;4.68;2.72;;;30.20;38.70;;;;;;5005651;28;20113;-44
2023/04/17 11:44:17;;;;;;;6.25;3.10;;;29.00;42.10;;;;;;5010880;28;20029;-45
2023/04/17 11:46:49;;;;;;;4.63;2.88;;;28.00;43.20;;;;;;5010811;28;20084;-46
2023/04/17 11:49:15;;;;;;;8.95;3.38;;;28.10;43.30;;;;;;5010608;28;20050;-56
2023/04/17 11:51:43;;;;;;;7.53;2.83;;;27.70;41.50;;;;;;5009800;28;20140;-46
2023/04/17 11:54:18;;;;;;;;;;;26.30;44.40;;;;;;5011675;28;20125;-50
2023/04/17 11:56:57;;;;;;;5.75;2.63;;;25.70;45.60;;;;;;5010832;28;19915;-48
2023/04/17 11:59:34;;;;;;;5.75;2.97;;;25.40;48.50;;;;;;5010972;28;20037;-51
2023/04/17 12:02:00;;;;;;;7.03;2.55;;;24.10;45.70;;;;;;5010871;28;20025;-51
2023/04/17 12:04:28;;;;;;;5.18;2.80;;;24.10;48.30;;;;;;5011185;28;20046;-47
2023/04/17 12:06:54;;;;;;;6.90;3.10;;;24.70;49.60;;;;;;5010638;28;20053;-49
2023/04/17 12:09:22;;;;;;;5.43;2.50;;;24.80;45.90;;;;;;5011004;28;20030;-49
2023/04/17 12:11:49;;;;;;;6.70;2.83;;;23.80;48.20;;;;;;5011260;28;20022;-51
2023/04/17 12:14:14;;;;;;;5.85;2.70;;;23.70;50.50;;;;;;5010752;28;20034;-57
2023/04/17 12:16:40;;;;;;;6.93;2.58;;;24.50;49.90;;;;;;5011087;28;20362;-55
2023/04/17 12:19:06;;;;;;;6.88;2.75;;;24.90;48.50;;;;;;5010822;28;20038;-53
2023/04/17 12:21:32;;;;;;;4.75;2.22;;;25.60;46.70;;;;;;5011091;28;20485;-54
2023/04/17 12:23:57;;;;;;;5.07;2.70;;;26.40;46.90;;;;;;5010193;28;20041;-48
2023/04/17 12:26:27;;;;;;;4.60;2.55;;;26.60;45.50;;;;;;5010306;28;20044;-55
2023/04/17 12:28:55;;;;;;;4.97;2.45;;;26.10;44.20;;;;;;5010902;28;20026;-53
2023/04/17 12:31:20;;;;;;;6.30;2.70;;;25.90;45.70;;;;;;5010633;28;20116;-48
2023/04/17 12:33:46;;;;;;;6.72;2.45;;;24.90;46.80;;;;;;5010796;28;20112;-46
2023/04/17 12:36:12;;;;;;;4.10;2.38;;;25.50;46.60;;;;;;5010904;28;20022;-49
2023/04/17 12:38:37;;;;;;;5.43;2.45;;;25.20;48.30;;;;;;5011028;28;20507;-45
2023/04/17 12:41:03;;;;;;;5.38;2.40;;;25.60;44.60;;;;;;5009331;28;20474;-48
2023/04/17 12:43:31;;;;;;;4.32;1.85;;;25.40;43.20;;;;;;5010301;28;20551;-46